Time,TemperatureF,DewpointF,PressureIn,WindDirection,WindDirectionDegrees,WindSpeedMPH,WindSpeedGustMPH,Humidity,HourlyPrecipIn,Conditions,Clouds,dailyrainin,SoftwareType,DateUTC
2013-06-21 00:02:00,84.1,42.3,29.66,WSW,238,0.0,0.0,23,0.00,,,0.00,Wunderground v.1.15,2013-06-21 07:02:00,
2013-06-21 00:07:00,83.5,42.9,29.66,WSW,242,0.0,0.0,24,0.00,,,0.00,Wunderground v.1.15,2013-06-21 07:07:00,
2013-06-21 00:12:00,82.7,42.2,29.66,WSW,248,0.0,0.0,24,0.00,,,0.00,Wunderground v.1.15,2013-06-21 07:12:00,
2013-06-21 00:17:00,82.0,45.7,29.66,WSW,248,0.0,0.0,28,0.00,,,0.00,Wunderground v.1.15,2013-06-21 07:17:00,
2013-06-21 00:22:00,79.8,49.7,29.66,WNW,295,0.0,1.0,35,0.00,,,0.00,Wunderground v.1.15,2013-06-21 07:22:00,
2013-06-21 00:28:00,78.2,47.5,29.66,NW,316,0.0,1.0,34,0.00,,,0.00,Wunderground v.1.15,2013-06-21 07:28:00,
2013-06-21 00:33:00,77.9,45.7,29.66,NW,316,0.0,0.0,32,0.00,,,0.00,Wunderground v.1.15,2013-06-21 07:33:00,
2013-06-21 00:38:00,78.5,42.7,29.66,NW,316,0.0,0.0,28,0.00,,,0.00,Wunderground v.1.15,2013-06-21 07:38:00,
2013-06-21 00:43:00,79.2,44.2,29.66,NW,308,0.0,0.0,29,0.00,,,0.00,Wunderground v.1.15,2013-06-21 07:43:00,
2013-06-21 00:48:00,79.2,44.2,29.66,NW,307,0.0,0.0,29,0.00,,,0.00,Wunderground v.1.15,2013-06-21 07:48:00,
2013-06-21 00:53:00,79.4,40.5,29.66,NW,307,0.0,0.0,25,0.00,,,0.00,Wunderground v.1.15,2013-06-21 07:53:00,
2013-06-21 00:58:00,80.8,36.0,29.66,ESE,118,0.0,1.0,20,0.00,,,0.00,Wunderground v.1.15,2013-06-21 07:58:00,
2013-06-21 01:04:00,82.5,37.4,29.66,ESE,111,0.0,1.0,20,0.00,,,0.00,Wunderground v.1.15,2013-06-21 08:04:00,
2013-06-21 01:09:00,83.0,36.5,29.66,ESE,117,0.0,1.0,19,0.00,,,0.00,Wunderground v.1.15,2013-06-21 08:09:00,
2013-06-21 01:14:00,82.5,36.1,29.66,WNW,298,0.0,0.0,19,0.00,,,0.00,Wunderground v.1.15,2013-06-21 08:14:00,
2013-06-21 01:20:00,82.2,34.5,29.66,WNW,303,0.0,0.0,18,0.00,,,0.00,Wunderground v.1.15,2013-06-21 08:20:00,
2013-06-21 01:25:00,81.9,35.6,29.66,WNW,297,0.0,0.0,19,0.00,,,0.00,Wunderground v.1.15,2013-06-21 08:25:00,
2013-06-21 01:30:00,81.7,35.4,29.66,WNW,295,0.0,0.0,19,0.00,,,0.00,Wunderground v.1.15,2013-06-21 08:30:00,
2013-06-21 01:35:00,81.7,35.4,29.66,WNW,301,0.0,0.0,19,0.00,,,0.00,Wunderground v.1.15,2013-06-21 08:35:00,
2013-06-21 01:40:00,81.7,35.4,29.66,WNW,301,0.0,0.0,19,0.00,,,0.00,Wunderground v.1.15,2013-06-21 08:40:00,
2013-06-21 01:45:00,81.8,35.5,29.66,WNW,300,0.0,1.0,19,0.00,,,0.00,Wunderground v.1.15,2013-06-21 08:45:00,
2013-06-21 01:51:00,81.9,35.6,29.66,WNW,300,0.0,0.0,19,0.00,,,0.00,Wunderground v.1.15,2013-06-21 08:51:00,
2013-06-21 01:56:00,81.9,35.6,29.66,WNW,300,0.0,0.0,19,0.00,,,0.00,Wunderground v.1.15,2013-06-21 08:56:00,
2013-06-21 02:01:00,81.9,35.6,29.66,WNW,300,0.0,0.0,19,0.00,,,0.00,Wunderground v.1.15,2013-06-21 09:01:00,
2013-06-21 02:06:00,81.7,38.0,29.66,West,278,0.0,1.0,21,0.00,,,0.00,Wunderground v.1.15,2013-06-21 09:06:00,
2013-06-21 02:11:00,80.7,38.3,29.66,NW,307,0.0,1.0,22,0.00,,,0.00,Wunderground v.1.15,2013-06-21 09:11:00,
2013-06-21 02:16:00,80.1,36.6,29.66,NW,307,0.0,1.0,21,0.00,,,0.00,Wunderground v.1.15,2013-06-21 09:16:00,
2013-06-21 02:21:00,80.0,38.9,29.66,NW,312,0.0,0.0,23,0.00,,,0.00,Wunderground v.1.15,2013-06-21 09:21:00,
2013-06-21 02:26:00,78.9,43.0,29.66,NW,304,0.0,1.0,28,0.00,,,0.00,Wunderground v.1.15,2013-06-21 09:26:00,
2013-06-21 02:31:00,77.7,43.8,29.66,NNW,339,1.0,1.0,30,0.00,,,0.00,Wunderground v.1.15,2013-06-21 09:31:00,
2013-06-21 02:36:00,75.7,47.6,29.66,NNE,12,0.0,3.0,37,0.00,,,0.00,Wunderground v.1.15,2013-06-21 09:36:00,
2013-06-21 02:41:00,74.3,44.1,29.66,NE,56,0.0,2.0,34,0.00,,,0.00,Wunderground v.1.15,2013-06-21 09:41:00,
2013-06-21 02:46:00,74.8,43.0,29.66,ESE,103,0.0,2.0,32,0.00,,,0.00,Wunderground v.1.15,2013-06-21 09:46:00,
2013-06-21 02:51:00,76.0,42.3,29.66,East,96,0.0,1.0,30,0.00,,,0.00,Wunderground v.1.15,2013-06-21 09:51:00,
2013-06-21 02:56:00,76.5,45.2,29.66,East,96,1.0,2.0,33,0.00,,,0.00,Wunderground v.1.15,2013-06-21 09:56:00,
2013-06-21 03:01:00,75.0,43.9,29.66,NNW,344,1.0,1.0,33,0.00,,,0.00,Wunderground v.1.15,2013-06-21 10:01:00,
2013-06-21 03:06:00,74.5,44.3,29.66,NNW,345,1.0,1.0,34,0.00,,,0.00,Wunderground v.1.15,2013-06-21 10:06:00,
2013-06-21 03:11:00,73.5,44.9,29.66,NNW,348,1.0,1.0,36,0.00,,,0.00,Wunderground v.1.15,2013-06-21 10:11:00,
2013-06-21 03:16:00,72.7,45.6,29.66,North,350,0.0,1.0,38,0.00,,,0.00,Wunderground v.1.15,2013-06-21 10:16:00,
2013-06-21 03:21:00,72.5,44.7,29.66,NE,56,0.0,1.0,37,0.00,,,0.00,Wunderground v.1.15,2013-06-21 10:21:00,
2013-06-21 03:26:00,73.0,44.5,29.66,ENE,76,0.0,1.0,36,0.00,,,0.00,Wunderground v.1.15,2013-06-21 10:26:00,
2013-06-21 03:31:00,73.0,45.2,29.66,ENE,76,0.0,0.0,37,0.00,,,0.00,Wunderground v.1.15,2013-06-21 10:31:00,
2013-06-21 03:36:00,72.7,45.6,29.66,ENE,76,0.0,0.0,38,0.00,,,0.00,Wunderground v.1.15,2013-06-21 10:36:00,
2013-06-21 03:41:00,72.6,45.5,29.66,ENE,76,0.0,0.0,38,0.00,,,0.00,Wunderground v.1.15,2013-06-21 10:41:00,
2013-06-21 03:46:00,72.2,45.2,29.66,NNE,22,0.0,1.0,38,0.00,,,0.00,Wunderground v.1.15,2013-06-21 10:46:00,
2013-06-21 03:51:00,71.6,45.3,29.66,NNE,15,1.0,1.0,39,0.00,,,0.00,Wunderground v.1.15,2013-06-21 10:51:00,
2013-06-21 03:56:00,71.8,44.8,29.67,North,8,3.0,3.0,38,0.00,,,0.00,Wunderground v.1.15,2013-06-21 10:56:00,
2013-06-21 04:01:00,72.2,44.5,29.67,NNE,23,3.0,3.0,37,0.00,,,0.00,Wunderground v.1.15,2013-06-21 11:01:00,
2013-06-21 04:06:00,71.8,45.5,29.67,NNE,22,0.0,3.0,39,0.00,,,0.00,Wunderground v.1.15,2013-06-21 11:06:00,
2013-06-21 04:12:00,71.7,45.4,29.67,NNW,341,2.0,2.0,39,0.00,,,0.00,Wunderground v.1.15,2013-06-21 11:12:00,
2013-06-21 04:17:00,72.3,45.9,29.67,NNW,339,0.0,2.0,39,0.00,,,0.00,Wunderground v.1.15,2013-06-21 11:17:00,
2013-06-21 04:22:00,72.4,46.0,29.67,NNW,339,0.0,1.0,39,0.00,,,0.00,Wunderground v.1.15,2013-06-21 11:22:00,
2013-06-21 04:27:00,72.0,46.3,29.67,NNW,339,0.0,1.0,40,0.00,,,0.00,Wunderground v.1.15,2013-06-21 11:27:00,
2013-06-21 04:32:00,71.9,46.3,29.67,NNW,340,0.0,0.0,40,0.00,,,0.00,Wunderground v.1.15,2013-06-21 11:32:00,
2013-06-21 04:37:00,71.7,46.1,29.67,NNW,341,0.0,0.0,40,0.00,,,0.00,Wunderground v.1.15,2013-06-21 11:37:00,
2013-06-21 04:42:00,71.6,46.0,29.67,NNW,340,0.0,0.0,40,0.00,,,0.00,Wunderground v.1.15,2013-06-21 11:42:00,
2013-06-21 04:47:00,71.4,45.1,29.67,ESE,116,1.0,1.0,39,0.00,,,0.00,Wunderground v.1.15,2013-06-21 11:47:00,
2013-06-21 04:52:00,71.4,45.1,29.67,ENE,70,0.0,1.0,39,0.00,,,0.00,Wunderground v.1.15,2013-06-21 11:52:00,
2013-06-21 04:57:00,71.2,43.6,29.67,ENE,69,0.0,1.0,37,0.00,,,0.00,Wunderground v.1.15,2013-06-21 11:57:00,
2013-06-21 05:02:00,70.8,43.9,29.67,ENE,69,0.0,1.0,38,0.00,,,0.00,Wunderground v.1.15,2013-06-21 12:02:00,
2013-06-21 05:07:00,71.1,44.2,29.67,ENE,69,0.0,1.0,38,0.00,,,0.00,Wunderground v.1.15,2013-06-21 12:07:00,
2013-06-21 05:12:00,71.6,43.9,29.67,ENE,69,0.0,0.0,37,0.00,,,0.00,Wunderground v.1.15,2013-06-21 12:12:00,
2013-06-21 05:17:00,71.5,43.1,29.68,ENE,69,0.0,0.0,36,0.00,,,0.00,Wunderground v.1.15,2013-06-21 12:17:00,
2013-06-21 05:22:00,71.1,42.8,29.68,ENE,69,0.0,0.0,36,0.00,,,0.00,Wunderground v.1.15,2013-06-21 12:22:00,
2013-06-21 05:27:00,70.7,43.8,29.68,ENE,70,0.0,0.0,38,0.00,,,0.00,Wunderground v.1.15,2013-06-21 12:27:00,
2013-06-21 05:32:00,70.2,44.7,29.68,ENE,70,0.0,0.0,40,0.00,,,0.00,Wunderground v.1.15,2013-06-21 12:32:00,
2013-06-21 05:37:00,70.3,44.2,29.69,ENE,70,0.0,1.0,39,0.00,,,0.00,Wunderground v.1.15,2013-06-21 12:37:00,
2013-06-21 05:42:00,70.4,44.3,29.69,ENE,75,0.0,0.0,39,0.00,,,0.00,Wunderground v.1.15,2013-06-21 12:42:00,
2013-06-21 05:47:00,70.3,44.2,29.69,ENE,77,0.0,1.0,39,0.00,,,0.00,Wunderground v.1.15,2013-06-21 12:47:00,
2013-06-21 05:52:00,70.6,44.4,29.69,East,94,0.0,1.0,39,0.00,,,0.00,Wunderground v.1.15,2013-06-21 12:52:00,
2013-06-21 05:57:00,71.2,45.6,29.69,East,94,0.0,1.0,40,0.00,,,0.00,Wunderground v.1.15,2013-06-21 12:57:00,
2013-06-21 06:02:00,72.0,45.7,29.70,East,94,0.0,1.0,39,0.00,,,0.00,Wunderground v.1.15,2013-06-21 13:02:00,
2013-06-21 06:07:00,72.8,45.7,29.70,East,94,0.0,1.0,38,0.00,,,0.00,Wunderground v.1.15,2013-06-21 13:07:00,
2013-06-21 06:12:00,73.6,46.4,29.70,East,96,0.0,0.0,38,0.00,,,0.00,Wunderground v.1.15,2013-06-21 13:12:00,
2013-06-21 06:17:00,74.3,46.3,29.71,ESE,102,0.0,1.0,37,0.00,,,0.00,Wunderground v.1.15,2013-06-21 13:17:00,
2013-06-21 06:22:00,74.5,46.5,29.71,East,101,0.0,0.0,37,0.00,,,0.00,Wunderground v.1.15,2013-06-21 13:22:00,
2013-06-21 06:27:00,75.1,47.8,29.71,ESE,102,0.0,0.0,38,0.00,,,0.00,Wunderground v.1.15,2013-06-21 13:27:00,
2013-06-21 06:32:00,75.9,47.8,29.71,ESE,102,0.0,0.0,37,0.00,,,0.00,Wunderground v.1.15,2013-06-21 13:32:00,
2013-06-21 06:37:00,77.3,46.7,29.71,East,101,0.0,0.0,34,0.00,,,0.00,Wunderground v.1.15,2013-06-21 13:37:00,
2013-06-21 06:42:00,77.7,46.3,29.71,East,101,0.0,0.0,33,0.00,,,0.00,Wunderground v.1.15,2013-06-21 13:42:00,
2013-06-21 06:47:00,78.3,47.6,29.72,East,101,0.0,0.0,34,0.00,,,0.00,Wunderground v.1.15,2013-06-21 13:47:00,
2013-06-21 06:52:00,79.3,45.2,29.72,ESE,107,0.0,0.0,30,0.00,,,0.00,Wunderground v.1.15,2013-06-21 13:52:00,
2013-06-21 06:57:00,79.1,45.0,29.72,ESE,107,0.0,1.0,30,0.00,,,0.00,Wunderground v.1.15,2013-06-21 13:57:00,
2013-06-21 07:02:00,79.8,45.6,29.72,ESE,107,0.0,0.0,30,0.00,,,0.00,Wunderground v.1.15,2013-06-21 14:02:00,
2013-06-21 07:07:00,79.8,51.2,29.73,NW,326,1.0,1.0,37,0.00,,,0.00,Wunderground v.1.15,2013-06-21 14:07:00,
2013-06-21 07:12:00,78.5,52.8,29.73,SSE,155,0.0,1.0,41,0.00,,,0.00,Wunderground v.1.15,2013-06-21 14:12:00,
2013-06-21 07:17:00,77.5,53.9,29.73,WNW,294,0.0,2.0,44,0.00,,,0.00,Wunderground v.1.15,2013-06-21 14:17:00,
2013-06-21 07:22:00,77.4,52.5,29.73,WNW,286,1.0,2.0,42,0.00,,,0.00,Wunderground v.1.15,2013-06-21 14:22:00,
2013-06-21 07:27:00,77.5,51.3,29.74,West,266,0.0,2.0,40,0.00,,,0.00,Wunderground v.1.15,2013-06-21 14:27:00,
2013-06-21 07:33:00,78.1,49.7,29.74,WSW,252,0.0,1.0,37,0.00,,,0.00,Wunderground v.1.15,2013-06-21 14:33:00,
2013-06-21 07:38:00,78.5,49.3,29.74,WSW,245,1.0,1.0,36,0.00,,,0.00,Wunderground v.1.15,2013-06-21 14:38:00,
2013-06-21 07:43:00,79.1,49.8,29.73,WSW,250,0.0,2.0,36,0.00,,,0.00,Wunderground v.1.15,2013-06-21 14:43:00,
2013-06-21 07:48:00,79.6,50.3,29.74,WSW,258,0.0,2.0,36,0.00,,,0.00,Wunderground v.1.15,2013-06-21 14:48:00,
2013-06-21 07:53:00,79.8,49.7,29.74,West,267,0.0,1.0,35,0.00,,,0.00,Wunderground v.1.15,2013-06-21 14:53:00,
2013-06-21 07:58:00,80.0,50.6,29.74,West,268,0.0,2.0,36,0.00,,,0.00,Wunderground v.1.15,2013-06-21 14:58:00,
2013-06-21 08:03:00,80.2,51.6,29.74,West,269,1.0,2.0,37,0.00,,,0.00,Wunderground v.1.15,2013-06-21 15:03:00,
2013-06-21 08:08:00,80.3,53.8,29.74,WNW,295,2.0,2.0,40,0.00,,,0.00,Wunderground v.1.15,2013-06-21 15:08:00,
2013-06-21 08:13:00,80.5,54.6,29.75,WNW,283,0.0,1.0,41,0.00,,,0.00,Wunderground v.1.15,2013-06-21 15:13:00,
2013-06-21 08:18:00,81.0,53.7,29.74,WNW,283,1.0,1.0,39,0.00,,,0.00,Wunderground v.1.15,2013-06-21 15:18:00,
2013-06-21 08:23:00,81.4,56.1,29.74,NW,311,1.0,2.0,42,0.00,,,0.00,Wunderground v.1.15,2013-06-21 15:23:00,
2013-06-21 08:28:00,81.7,53.6,29.75,NW,319,2.0,2.0,38,0.00,,,0.00,Wunderground v.1.15,2013-06-21 15:28:00,
2013-06-21 08:33:00,82.0,55.3,29.75,NW,310,2.0,2.0,40,0.00,,,0.00,Wunderground v.1.15,2013-06-21 15:33:00,
2013-06-21 08:38:00,82.5,55.0,29.75,NW,321,0.0,3.0,39,0.00,,,0.00,Wunderground v.1.15,2013-06-21 15:38:00,
2013-06-21 08:43:00,82.9,55.4,29.75,WNW,296,1.0,2.0,39,0.00,,,0.00,Wunderground v.1.15,2013-06-21 15:43:00,
2013-06-21 08:48:00,83.3,57.1,29.75,NW,319,2.0,3.0,41,0.00,,,0.00,Wunderground v.1.15,2013-06-21 15:48:00,
2013-06-21 08:53:00,83.6,58.7,29.75,NNW,331,2.0,3.0,43,0.00,,,0.00,Wunderground v.1.15,2013-06-21 15:53:00,
2013-06-21 08:58:00,83.8,61.4,29.75,NW,305,2.0,3.0,47,0.00,,,0.00,Wunderground v.1.15,2013-06-21 15:58:00,
2013-06-21 09:03:00,84.3,61.3,29.75,WNW,295,2.0,4.0,46,0.00,,,0.00,Wunderground v.1.15,2013-06-21 16:03:00,
2013-06-21 09:08:00,84.6,60.9,29.74,NW,307,3.0,4.0,45,0.00,,,0.00,Wunderground v.1.15,2013-06-21 16:08:00,
2013-06-21 09:13:00,85.0,59.3,29.74,West,278,2.0,5.0,42,0.00,,,0.00,Wunderground v.1.15,2013-06-21 16:13:00,
2013-06-21 09:18:00,86.3,51.2,29.74,West,273,6.0,8.0,30,0.00,,,0.00,Wunderground v.1.15,2013-06-21 16:18:00,
2013-06-21 09:23:00,87.4,49.3,29.74,West,273,7.0,9.0,27,0.00,,,0.00,Wunderground v.1.15,2013-06-21 16:23:00,
2013-06-21 09:29:00,88.1,46.8,29.74,SW,224,10.0,10.0,24,0.00,,,0.00,Wunderground v.1.15,2013-06-21 16:29:00,
2013-06-21 09:34:00,89.0,46.4,29.74,WSW,256,4.0,9.0,23,0.00,,,0.00,Wunderground v.1.15,2013-06-21 16:34:00,
2013-06-21 09:39:00,89.3,44.2,29.74,WSW,238,5.0,11.0,21,0.00,,,0.00,Wunderground v.1.15,2013-06-21 16:39:00,
2013-06-21 09:44:00,90.0,39.3,29.74,SW,219,2.0,8.0,17,0.00,,,0.00,Wunderground v.1.15,2013-06-21 16:44:00,
2013-06-21 09:49:00,90.8,38.4,29.74,WSW,245,3.0,10.0,16,0.00,,,0.00,Wunderground v.1.15,2013-06-21 16:49:00,
2013-06-21 09:54:00,91.5,42.0,29.74,West,269,6.0,9.0,18,0.00,,,0.00,Wunderground v.1.15,2013-06-21 16:54:00,
2013-06-21 09:59:00,91.4,44.7,29.75,West,264,9.0,10.0,20,0.00,,,0.00,Wunderground v.1.15,2013-06-21 16:59:00,
2013-06-21 10:04:00,90.8,45.5,29.75,West,269,4.0,12.0,21,0.00,,,0.00,Wunderground v.1.15,2013-06-21 17:04:00,
2013-06-21 10:09:00,90.6,42.7,29.75,West,264,12.0,12.0,19,0.00,,,0.00,Wunderground v.1.15,2013-06-21 17:09:00,
2013-06-21 10:14:00,89.3,45.5,29.75,West,271,10.0,11.0,22,0.00,,,0.00,Wunderground v.1.15,2013-06-21 17:14:00,
2013-06-21 10:19:00,89.4,44.3,29.75,WSW,255,9.0,12.0,21,0.00,,,0.00,Wunderground v.1.15,2013-06-21 17:19:00,
2013-06-21 10:24:00,90.3,39.6,29.75,SW,221,7.0,13.0,17,0.00,,,0.00,Wunderground v.1.15,2013-06-21 17:24:00,
2013-06-21 10:29:00,90.6,38.3,29.75,SW,233,6.0,14.0,16,0.00,,,0.00,Wunderground v.1.15,2013-06-21 17:29:00,
2013-06-21 10:34:00,91.1,35.3,29.75,West,266,15.0,15.0,14,0.00,,,0.00,Wunderground v.1.15,2013-06-21 17:34:00,
2013-06-21 10:39:00,91.9,34.0,29.75,WSW,243,8.0,15.0,13,0.00,,,0.00,Wunderground v.1.15,2013-06-21 17:39:00,
2013-06-21 10:45:00,92.5,36.4,29.75,West,269,7.0,12.0,14,0.00,,,0.00,Wunderground v.1.15,2013-06-21 17:45:00,
2013-06-21 10:46:00,92.5,36.4,29.75,WSW,252,10.0,12.0,14,0.00,,,0.00,Wunderground v.1.15,2013-06-21 17:46:00,
2013-06-21 10:51:00,93.0,34.9,29.75,West,273,9.0,12.0,13,0.00,,,0.00,Wunderground v.1.15,2013-06-21 17:51:00,
2013-06-21 10:56:00,93.3,37.0,29.75,West,274,11.0,14.0,14,0.00,,,0.00,Wunderground v.1.15,2013-06-21 17:56:00,
2013-06-21 11:01:00,93.0,36.8,29.75,WSW,252,13.0,13.0,14,0.00,,,0.00,Wunderground v.1.15,2013-06-21 18:01:00,
2013-06-21 11:06:00,93.3,38.8,29.75,West,260,8.0,13.0,15,0.00,,,0.00,Wunderground v.1.15,2013-06-21 18:06:00,
2013-06-21 11:11:00,92.9,40.1,29.75,West,269,11.0,11.0,16,0.00,,,0.00,Wunderground v.1.15,2013-06-21 18:11:00,
2013-06-21 11:16:00,92.8,40.0,29.75,WSW,255,10.0,15.0,16,0.00,,,0.00,Wunderground v.1.15,2013-06-21 18:16:00,
2013-06-21 11:21:00,92.6,36.4,29.75,WSW,257,8.0,14.0,14,0.00,,,0.00,Wunderground v.1.15,2013-06-21 18:21:00,
2013-06-21 11:23:00,92.6,42.9,29.75,West,273,12.0,14.0,18,0.00,,,0.00,Wunderground v.1.15,2013-06-21 18:23:00,
2013-06-21 11:24:00,92.7,36.5,29.75,WSW,257,7.0,14.0,14,0.00,,,0.00,Wunderground v.1.15,2013-06-21 18:24:00,
2013-06-21 11:29:00,93.3,37.0,29.75,West,273,12.0,14.0,14,0.00,,,0.00,Wunderground v.1.15,2013-06-21 18:29:00,
2013-06-21 11:34:00,94.0,39.3,29.75,West,262,13.0,14.0,15,0.00,,,0.00,Wunderground v.1.15,2013-06-21 18:34:00,
2013-06-21 11:39:00,94.9,32.2,29.75,WSW,257,6.0,15.0,11,0.00,,,0.00,Wunderground v.1.15,2013-06-21 18:39:00,
2013-06-21 11:44:00,95.2,34.6,29.75,West,266,5.0,12.0,12,0.00,,,0.00,Wunderground v.1.15,2013-06-21 18:44:00,
2013-06-21 11:45:00,95.3,38.6,29.75,West,269,10.0,12.0,14,0.00,,,0.00,Wunderground v.1.15,2013-06-21 18:45:00,
2013-06-21 11:51:00,95.1,34.5,29.74,West,269,7.0,8.0,12,0.00,,,0.00,Wunderground v.1.15,2013-06-21 18:51:00,
2013-06-21 11:56:00,94.9,34.3,29.74,WSW,256,8.0,12.0,12,0.00,,,0.00,Wunderground v.1.15,2013-06-21 18:56:00,
2013-06-21 12:01:00,95.7,38.9,29.74,West,263,8.0,9.0,14,0.00,,,0.00,Wunderground v.1.15,2013-06-21 19:01:00,
2013-06-21 12:06:00,95.6,36.9,29.73,SW,235,13.0,15.0,13,0.00,,,0.00,Wunderground v.1.15,2013-06-21 19:06:00,
2013-06-21 12:11:00,95.6,43.8,29.73,West,279,6.0,9.0,17,0.00,,,0.00,Wunderground v.1.15,2013-06-21 19:11:00,
2013-06-21 12:16:00,95.4,38.6,29.73,West,274,8.0,12.0,14,0.00,,,0.00,Wunderground v.1.15,2013-06-21 19:16:00,
2013-06-21 12:20:00,95.6,40.6,29.73,SW,226,11.0,11.0,15,0.00,,,0.00,Wunderground v.1.15,2013-06-21 19:20:00,
2013-06-21 12:25:00,96.2,39.3,29.73,West,264,8.0,14.0,14,0.00,,,0.00,Wunderground v.1.15,2013-06-21 19:25:00,
2013-06-21 12:30:00,96.7,39.7,29.73,West,269,9.0,9.0,14,0.00,,,0.00,Wunderground v.1.15,2013-06-21 19:30:00,
2013-06-21 12:35:00,96.1,35.3,29.73,WSW,240,9.0,15.0,12,0.00,,,0.00,Wunderground v.1.15,2013-06-21 19:35:00,
2013-06-21 12:40:00,97.2,26.1,29.73,WSW,252,11.0,13.0,8,0.00,,,0.00,Wunderground v.1.15,2013-06-21 19:40:00,
2013-06-21 12:42:00,97.2,33.9,29.73,West,273,9.0,13.0,11,0.00,,,0.00,Wunderground v.1.15,2013-06-21 19:42:00,
2013-06-21 12:47:00,97.4,26.2,29.72,SW,232,11.0,16.0,8,0.00,,,0.00,Wunderground v.1.15,2013-06-21 19:47:00,
2013-06-21 12:52:00,98.2,26.8,29.72,SW,236,6.0,17.0,8,0.00,,,0.00,Wunderground v.1.15,2013-06-21 19:52:00,
2013-06-21 12:57:00,98.5,23.8,29.72,West,269,11.0,17.0,7,0.00,,,0.00,Wunderground v.1.15,2013-06-21 19:57:00,
2013-06-21 13:02:00,98.7,30.1,29.72,West,276,10.0,18.0,9,0.00,,,0.00,Wunderground v.1.15,2013-06-21 20:02:00,
2013-06-21 13:04:00,98.7,32.7,29.72,West,262,9.0,18.0,10,0.00,,,0.00,Wunderground v.1.15,2013-06-21 20:04:00,
2013-06-21 13:08:00,98.5,27.1,29.72,West,273,6.0,18.0,8,0.00,,,0.00,Wunderground v.1.15,2013-06-21 20:08:00,
2013-06-21 13:11:00,99.1,35.4,29.72,WSW,256,13.0,13.0,11,0.00,,,0.00,Wunderground v.1.15,2013-06-21 20:11:00,
2013-06-21 13:14:00,98.4,37.1,29.71,West,277,11.0,15.0,12,0.00,,,0.00,Wunderground v.1.15,2013-06-21 20:14:00,
2013-06-21 13:19:00,98.2,32.3,29.71,West,271,6.0,16.0,10,0.00,,,0.00,Wunderground v.1.15,2013-06-21 20:19:00,
2013-06-21 13:24:00,98.0,38.8,29.71,WSW,250,9.0,17.0,13,0.00,,,0.00,Wunderground v.1.15,2013-06-21 20:24:00,
2013-06-21 13:30:00,98.1,32.2,29.71,West,260,9.0,17.0,10,0.00,,,0.00,Wunderground v.1.15,2013-06-21 20:30:00,
2013-06-21 13:35:00,98.3,37.0,29.70,West,263,10.0,16.0,12,0.00,,,0.00,Wunderground v.1.15,2013-06-21 20:35:00,
2013-06-21 13:40:00,98.5,29.9,29.70,West,262,9.0,16.0,9,0.00,,,0.00,Wunderground v.1.15,2013-06-21 20:40:00,
2013-06-21 13:45:00,99.5,30.7,29.70,West,262,9.0,13.0,9,0.00,,,0.00,Wunderground v.1.15,2013-06-21 20:45:00,
2013-06-21 13:50:00,99.5,30.7,29.70,WSW,253,8.0,9.0,9,0.00,,,0.00,Wunderground v.1.15,2013-06-21 20:50:00,
2013-06-21 13:55:00,99.6,33.4,29.70,West,259,12.0,13.0,10,0.00,,,0.00,Wunderground v.1.15,2013-06-21 20:55:00,
2013-06-21 14:00:00,99.9,40.3,29.70,West,265,7.0,9.0,13,0.00,,,0.00,Wunderground v.1.15,2013-06-21 21:00:00,
2013-06-21 14:03:00,99.6,33.4,29.70,West,259,10.0,16.0,10,0.00,,,0.00,Wunderground v.1.15,2013-06-21 21:03:00,
2013-06-21 14:04:00,99.7,27.9,29.69,West,262,10.0,16.0,8,0.00,,,0.00,Wunderground v.1.15,2013-06-21 21:04:00,
2013-06-21 14:09:00,99.6,27.9,29.69,West,264,11.0,16.0,8,0.00,,,0.00,Wunderground v.1.15,2013-06-21 21:09:00,
2013-06-21 14:14:00,99.4,30.6,29.69,WSW,255,7.0,13.0,9,0.00,,,0.00,Wunderground v.1.15,2013-06-21 21:14:00,
2013-06-21 14:19:00,100.8,28.7,29.69,West,277,4.0,13.0,8,0.00,,,0.00,Wunderground v.1.15,2013-06-21 21:19:00,
2013-06-21 14:24:00,100.7,28.7,29.69,SW,233,10.0,14.0,8,0.00,,,0.00,Wunderground v.1.15,2013-06-21 21:24:00,
2013-06-21 14:29:00,100.4,31.4,29.68,West,265,11.0,15.0,9,0.00,,,0.00,Wunderground v.1.15,2013-06-21 21:29:00,
2013-06-21 14:34:00,100.3,28.4,29.68,West,266,6.0,15.0,8,0.00,,,0.00,Wunderground v.1.15,2013-06-21 21:34:00,
2013-06-21 14:39:00,100.0,36.1,29.68,WSW,243,9.0,15.0,11,0.00,,,0.00,Wunderground v.1.15,2013-06-21 21:39:00,
2013-06-21 14:44:00,100.5,34.1,29.68,WSW,256,10.0,13.0,10,0.00,,,0.00,Wunderground v.1.15,2013-06-21 21:44:00,
2013-06-21 14:49:00,100.5,34.1,29.67,WSW,249,6.0,13.0,10,0.00,,,0.00,Wunderground v.1.15,2013-06-21 21:49:00,
2013-06-21 14:54:00,100.9,28.8,29.67,WSW,239,7.0,13.0,8,0.00,,,0.00,Wunderground v.1.15,2013-06-21 21:54:00,
2013-06-21 14:59:00,101.3,25.9,29.67,WSW,245,9.0,14.0,7,0.00,,,0.00,Wunderground v.1.15,2013-06-21 21:59:00,
2013-06-21 15:04:00,101.4,32.1,29.67,WSW,245,10.0,14.0,9,0.00,,,0.00,Wunderground v.1.15,2013-06-21 22:04:00,
2013-06-21 15:09:00,101.0,31.8,29.66,West,262,11.0,14.0,9,0.00,,,0.00,Wunderground v.1.15,2013-06-21 22:09:00,
2013-06-21 15:14:00,101.3,32.0,29.66,West,272,10.0,15.0,9,0.00,,,0.00,Wunderground v.1.15,2013-06-21 22:14:00,
2013-06-21 15:19:00,101.5,29.3,29.66,WNW,300,2.0,15.0,8,0.00,,,0.00,Wunderground v.1.15,2013-06-21 22:19:00,
2013-06-21 15:24:00,101.6,39.5,29.66,WSW,255,7.0,11.0,12,0.00,,,0.00,Wunderground v.1.15,2013-06-21 22:24:00,
2013-06-21 15:29:00,101.2,39.2,29.66,West,263,11.0,13.0,12,0.00,,,0.00,Wunderground v.1.15,2013-06-21 22:29:00,
2013-06-21 15:35:00,101.5,32.2,29.66,West,260,6.0,14.0,9,0.00,,,0.00,Wunderground v.1.15,2013-06-21 22:35:00,
2013-06-21 15:40:00,101.3,34.7,29.65,WSW,245,11.0,16.0,10,0.00,,,0.00,Wunderground v.1.15,2013-06-21 22:40:00,
2013-06-21 15:45:00,102.0,37.6,29.65,West,271,8.0,13.0,11,0.00,,,0.00,Wunderground v.1.15,2013-06-21 22:45:00,
2013-06-21 15:50:00,101.7,37.4,29.65,West,277,8.0,14.0,11,0.00,,,0.00,Wunderground v.1.15,2013-06-21 22:50:00,
2013-06-21 15:55:00,101.2,34.6,29.65,WSW,258,12.0,16.0,10,0.00,,,0.00,Wunderground v.1.15,2013-06-21 22:55:00,
2013-06-21 16:00:00,100.9,36.8,29.65,West,277,8.0,18.0,11,0.00,,,0.00,Wunderground v.1.15,2013-06-21 23:00:00,
2013-06-21 16:05:00,101.4,34.7,29.65,West,278,12.0,15.0,10,0.00,,,0.00,Wunderground v.1.15,2013-06-21 23:05:00,
2013-06-21 16:10:00,101.8,35.0,29.64,West,259,11.0,15.0,10,0.00,,,0.00,Wunderground v.1.15,2013-06-21 23:10:00,
2013-06-21 16:15:00,101.3,34.7,29.64,WSW,255,9.0,14.0,10,0.00,,,0.00,Wunderground v.1.15,2013-06-21 23:15:00,
2013-06-21 16:20:00,101.1,39.1,29.64,West,262,6.0,15.0,12,0.00,,,0.00,Wunderground v.1.15,2013-06-21 23:20:00,
2013-06-21 16:25:00,101.5,37.2,29.64,WSW,252,13.0,13.0,11,0.00,,,0.00,Wunderground v.1.15,2013-06-21 23:25:00,
2013-06-21 16:30:00,101.9,35.1,29.64,WSW,242,9.0,14.0,10,0.00,,,0.00,Wunderground v.1.15,2013-06-21 23:30:00,
2013-06-21 16:35:00,102.3,32.8,29.64,SW,228,8.0,14.0,9,0.00,,,0.00,Wunderground v.1.15,2013-06-21 23:35:00,
2013-06-21 16:40:00,102.5,35.6,29.63,West,266,7.0,9.0,10,0.00,,,0.00,Wunderground v.1.15,2013-06-21 23:40:00,
2013-06-21 16:45:00,102.3,37.8,29.63,West,271,8.0,13.0,11,0.00,,,0.00,Wunderground v.1.15,2013-06-21 23:45:00,
2013-06-21 16:50:00,101.9,35.1,29.63,WSW,249,10.0,11.0,10,0.00,,,0.00,Wunderground v.1.15,2013-06-21 23:50:00,
2013-06-21 16:55:00,102.5,32.9,29.63,WSW,239,9.0,11.0,9,0.00,,,0.00,Wunderground v.1.15,2013-06-21 23:55:00,
2013-06-21 17:00:00,102.1,42.0,29.62,West,270,9.0,13.0,13,0.00,,,0.00,Wunderground v.1.15,2013-06-22 00:00:00,
2013-06-21 17:05:00,102.8,23.2,29.62,SW,215,6.0,14.0,6,0.00,,,0.00,Wunderground v.1.15,2013-06-22 00:05:00,
2013-06-21 17:10:00,102.9,35.9,29.62,West,265,9.0,11.0,10,0.00,,,0.00,Wunderground v.1.15,2013-06-22 00:10:00,
2013-06-21 17:15:00,103.0,30.4,29.62,West,270,7.0,14.0,8,0.00,,,0.00,Wunderground v.1.15,2013-06-22 00:15:00,
2013-06-21 17:20:00,103.0,27.1,29.62,WSW,258,11.0,11.0,7,0.00,,,0.00,Wunderground v.1.15,2013-06-22 00:20:00,
2013-06-21 17:25:00,103.2,23.5,29.62,SW,226,8.0,11.0,6,0.00,,,0.00,Wunderground v.1.15,2013-06-22 00:25:00,
2013-06-21 17:30:00,103.4,19.4,29.62,WSW,248,6.0,9.0,5,0.00,,,0.00,Wunderground v.1.15,2013-06-22 00:30:00,
2013-06-21 17:35:00,103.6,19.5,29.62,SW,221,4.0,12.0,5,0.00,,,0.00,Wunderground v.1.15,2013-06-22 00:35:00,
2013-06-21 17:40:00,103.8,19.6,29.61,SW,236,5.0,7.0,5,0.00,,,0.00,Wunderground v.1.15,2013-06-22 00:40:00,
2013-06-21 17:45:00,103.9,19.7,29.61,South,186,3.0,10.0,5,0.00,,,0.00,Wunderground v.1.15,2013-06-22 00:45:00,
2013-06-21 17:50:00,103.9,24.0,29.61,WSW,255,8.0,13.0,6,0.00,,,0.00,Wunderground v.1.15,2013-06-22 00:50:00,
2013-06-21 17:55:00,103.9,19.7,29.61,WSW,246,11.0,14.0,5,0.00,,,0.00,Wunderground v.1.15,2013-06-22 00:55:00,
2013-06-21 18:00:00,103.6,19.5,29.61,SW,235,5.0,6.0,5,0.00,,,0.00,Wunderground v.1.15,2013-06-22 01:00:00,
2013-06-21 18:05:00,103.5,19.4,29.61,SW,221,3.0,13.0,5,0.00,,,0.00,Wunderground v.1.15,2013-06-22 01:05:00,
2013-06-21 18:10:00,103.3,27.3,29.61,West,259,6.0,8.0,7,0.00,,,0.00,Wunderground v.1.15,2013-06-22 01:10:00,
2013-06-21 18:15:00,102.7,30.1,29.61,SW,233,6.0,13.0,8,0.00,,,0.00,Wunderground v.1.15,2013-06-22 01:15:00,
2013-06-21 18:20:00,102.2,32.7,29.61,WSW,248,6.0,9.0,9,0.00,,,0.00,Wunderground v.1.15,2013-06-22 01:20:00,
2013-06-21 18:25:00,102.2,32.7,29.61,West,269,5.0,10.0,9,0.00,,,0.00,Wunderground v.1.15,2013-06-22 01:25:00,
2013-06-21 18:30:00,102.3,29.9,29.61,WSW,243,6.0,9.0,8,0.00,,,0.00,Wunderground v.1.15,2013-06-22 01:30:00,
2013-06-21 18:35:00,102.1,29.7,29.62,West,264,4.0,9.0,8,0.00,,,0.00,Wunderground v.1.15,2013-06-22 01:35:00,
2013-06-21 18:40:00,101.5,32.2,29.61,SW,233,6.0,10.0,9,0.00,,,0.00,Wunderground v.1.15,2013-06-22 01:40:00,
2013-06-21 18:45:00,101.0,34.4,29.61,WSW,239,6.0,11.0,10,0.00,,,0.00,Wunderground v.1.15,2013-06-22 01:45:00,
2013-06-21 18:50:00,100.4,34.0,29.61,SW,222,7.0,9.0,10,0.00,,,0.00,Wunderground v.1.15,2013-06-22 01:50:00,
2013-06-21 18:55:00,99.6,33.4,29.62,SW,230,6.0,9.0,10,0.00,,,0.00,Wunderground v.1.15,2013-06-22 01:55:00,
2013-06-21 19:00:00,99.5,33.3,29.62,East,80,2.0,6.0,10,0.00,,,0.00,Wunderground v.1.15,2013-06-22 02:00:00,
2013-06-21 19:05:00,99.7,30.8,29.62,WSW,239,4.0,8.0,9,0.00,,,0.00,Wunderground v.1.15,2013-06-22 02:05:00,
2013-06-21 19:10:00,99.8,30.9,29.62,WSW,248,7.0,7.0,9,0.00,,,0.00,Wunderground v.1.15,2013-06-22 02:10:00,
2013-06-21 19:15:00,99.6,30.8,29.61,South,176,1.0,8.0,9,0.00,,,0.00,Wunderground v.1.15,2013-06-22 02:15:00,
2013-06-21 19:21:00,99.2,30.5,29.61,SSW,203,1.0,7.0,9,0.00,,,0.00,Wunderground v.1.15,2013-06-22 02:21:00,
2013-06-21 19:26:00,98.4,29.9,29.61,SW,236,2.0,7.0,9,0.00,,,0.00,Wunderground v.1.15,2013-06-22 02:26:00,
2013-06-21 19:31:00,97.5,29.2,29.61,South,188,2.0,5.0,9,0.00,,,0.00,Wunderground v.1.15,2013-06-22 02:31:00,
2013-06-21 19:36:00,96.9,31.3,29.61,ESE,120,2.0,5.0,10,0.00,,,0.00,Wunderground v.1.15,2013-06-22 02:36:00,
2013-06-21 19:40:00,96.4,31.0,29.61,SW,231,5.0,7.0,10,0.00,,,0.00,Wunderground v.1.15,2013-06-22 02:40:00,
2013-06-21 19:45:00,95.6,30.3,29.61,SSW,207,2.0,9.0,10,0.00,,,0.00,Wunderground v.1.15,2013-06-22 02:45:00,
2013-06-21 19:51:00,94.7,32.0,29.61,SSW,211,1.0,8.0,11,0.00,,,0.00,Wunderground v.1.15,2013-06-22 02:51:00,
2013-06-21 19:56:00,94.0,31.5,29.61,SE,139,0.0,8.0,11,0.00,,,0.00,Wunderground v.1.15,2013-06-22 02:56:00,
2013-06-21 20:01:00,93.4,33.2,29.61,SE,128,1.0,2.0,12,0.00,,,0.00,Wunderground v.1.15,2013-06-22 03:01:00,
2013-06-21 20:06:00,92.9,32.8,29.61,SE,141,1.0,3.0,12,0.00,,,0.00,Wunderground v.1.15,2013-06-22 03:06:00,
2013-06-21 20:11:00,92.5,32.5,29.61,South,169,0.0,2.0,12,0.00,,,0.00,Wunderground v.1.15,2013-06-22 03:11:00,
2013-06-21 20:16:00,92.4,32.4,29.61,SE,134,0.0,5.0,12,0.00,,,0.00,Wunderground v.1.15,2013-06-22 03:16:00,
2013-06-21 20:21:00,92.1,32.2,29.62,SE,134,0.0,1.0,12,0.00,,,0.00,Wunderground v.1.15,2013-06-22 03:21:00,
2013-06-21 20:26:00,91.8,33.9,29.62,ESE,115,2.0,3.0,13,0.00,,,0.00,Wunderground v.1.15,2013-06-22 03:26:00,
2013-06-21 20:31:00,91.5,33.7,29.62,WSW,248,0.0,4.0,13,0.00,,,0.00,Wunderground v.1.15,2013-06-22 03:31:00,
2013-06-21 20:36:00,91.2,35.3,29.62,SSE,166,0.0,4.0,14,0.00,,,0.00,Wunderground v.1.15,2013-06-22 03:36:00,
2013-06-21 20:41:00,91.1,33.4,29.62,East,101,0.0,2.0,13,0.00,,,0.00,Wunderground v.1.15,2013-06-22 03:41:00,
2013-06-21 20:46:00,91.1,33.4,29.62,SE,136,0.0,3.0,13,0.00,,,0.00,Wunderground v.1.15,2013-06-22 03:46:00,
2013-06-21 20:51:00,90.9,33.2,29.62,WSW,239,0.0,1.0,13,0.00,,,0.00,Wunderground v.1.15,2013-06-22 03:51:00,
2013-06-21 20:56:00,90.6,34.9,29.63,WSW,253,1.0,3.0,14,0.00,,,0.00,Wunderground v.1.15,2013-06-22 03:56:00,
2013-06-21 21:01:00,90.3,34.6,29.63,SSE,150,0.0,1.0,14,0.00,,,0.00,Wunderground v.1.15,2013-06-22 04:01:00,
2013-06-21 21:06:00,90.0,36.1,29.63,West,264,0.0,1.0,15,0.00,,,0.00,Wunderground v.1.15,2013-06-22 04:06:00,
2013-06-21 21:11:00,89.4,35.7,29.63,WSW,246,0.0,1.0,15,0.00,,,0.00,Wunderground v.1.15,2013-06-22 04:11:00,
2013-06-21 21:16:00,89.2,35.5,29.63,SE,143,0.0,2.0,15,0.00,,,0.00,Wunderground v.1.15,2013-06-22 04:16:00,
2013-06-21 21:21:00,88.9,35.3,29.63,SSE,162,0.0,1.0,15,0.00,,,0.00,Wunderground v.1.15,2013-06-22 04:21:00,
2013-06-21 21:26:00,88.7,35.1,29.63,SSE,150,0.0,1.0,15,0.00,,,0.00,Wunderground v.1.15,2013-06-22 04:26:00,
2013-06-21 21:31:00,88.8,35.2,29.63,SW,222,0.0,1.0,15,0.00,,,0.00,Wunderground v.1.15,2013-06-22 04:31:00,
2013-06-21 21:36:00,88.7,35.1,29.64,SSE,150,0.0,1.0,15,0.00,,,0.00,Wunderground v.1.15,2013-06-22 04:36:00,
2013-06-21 21:41:00,88.3,36.4,29.64,SE,142,0.0,1.0,16,0.00,,,0.00,Wunderground v.1.15,2013-06-22 04:41:00,
2013-06-21 21:46:00,87.9,36.1,29.64,SW,226,0.0,1.0,16,0.00,,,0.00,Wunderground v.1.15,2013-06-22 04:46:00,
2013-06-21 21:51:00,87.7,35.9,29.64,SSE,152,0.0,0.0,16,0.00,,,0.00,Wunderground v.1.15,2013-06-22 04:51:00,
2013-06-21 21:56:00,87.5,34.1,29.64,SSE,152,0.0,0.0,15,0.00,,,0.00,Wunderground v.1.15,2013-06-22 04:56:00,
2013-06-21 22:01:00,87.4,34.1,29.63,SSE,152,0.0,0.0,15,0.00,,,0.00,Wunderground v.1.15,2013-06-22 05:01:00,
2013-06-21 22:06:00,87.6,32.5,29.64,ESE,115,0.0,1.0,14,0.00,,,0.00,Wunderground v.1.15,2013-06-22 05:06:00,
2013-06-21 22:11:00,87.5,32.4,29.64,ESE,115,0.0,0.0,14,0.00,,,0.00,Wunderground v.1.15,2013-06-22 05:11:00,
2013-06-21 22:16:00,86.5,31.6,29.64,ESE,115,0.0,0.0,14,0.00,,,0.00,Wunderground v.1.15,2013-06-22 05:16:00,
2013-06-21 22:21:00,86.1,31.3,29.64,ESE,113,0.0,0.0,14,0.00,,,0.00,Wunderground v.1.15,2013-06-22 05:21:00,
2013-06-21 22:26:00,86.8,30.0,29.64,East,92,2.0,2.0,13,0.00,,,0.00,Wunderground v.1.15,2013-06-22 05:26:00,
2013-06-21 22:31:00,87.5,30.6,29.64,East,96,0.0,1.0,13,0.00,,,0.00,Wunderground v.1.15,2013-06-22 05:31:00,
2013-06-21 22:36:00,87.5,30.6,29.64,East,97,0.0,1.0,13,0.00,,,0.00,Wunderground v.1.15,2013-06-22 05:36:00,
2013-06-21 22:41:00,87.5,30.6,29.64,ESE,115,1.0,2.0,13,0.00,,,0.00,Wunderground v.1.15,2013-06-22 05:41:00,
2013-06-21 22:46:00,87.5,30.6,29.64,ESE,115,0.0,2.0,13,0.00,,,0.00,Wunderground v.1.15,2013-06-22 05:46:00,
2013-06-21 22:51:00,87.0,32.0,29.64,ESE,115,0.0,0.0,14,0.00,,,0.00,Wunderground v.1.15,2013-06-22 05:51:00,
2013-06-21 22:56:00,86.1,31.3,29.64,ESE,115,0.0,0.0,14,0.00,,,0.00,Wunderground v.1.15,2013-06-22 05:56:00,
2013-06-21 23:01:00,85.2,32.3,29.64,ESE,115,0.0,0.0,15,0.00,,,0.00,Wunderground v.1.15,2013-06-22 06:01:00,
2013-06-21 23:06:00,84.8,33.6,29.64,SE,136,0.0,1.0,16,0.00,,,0.00,Wunderground v.1.15,2013-06-22 06:06:00,
2013-06-21 23:11:00,84.9,33.7,29.65,SE,139,0.0,1.0,16,0.00,,,0.00,Wunderground v.1.15,2013-06-22 06:11:00,
2013-06-21 23:16:00,85.4,32.5,29.65,SSE,156,0.0,1.0,15,0.00,,,0.00,Wunderground v.1.15,2013-06-22 06:16:00,
2013-06-21 23:21:00,85.5,32.6,29.65,SE,128,0.0,0.0,15,0.00,,,0.00,Wunderground v.1.15,2013-06-22 06:21:00,
2013-06-21 23:26:00,85.4,35.6,29.65,ESE,108,0.0,2.0,17,0.00,,,0.00,Wunderground v.1.15,2013-06-22 06:26:00,
2013-06-21 23:31:00,85.3,35.5,29.65,SW,214,0.0,1.0,17,0.00,,,0.00,Wunderground v.1.15,2013-06-22 06:31:00,
2013-06-21 23:36:00,85.2,35.5,29.65,SSE,155,1.0,3.0,17,0.00,,,0.00,Wunderground v.1.15,2013-06-22 06:36:00,
2013-06-21 23:41:00,85.0,35.3,29.65,NE,43,0.0,1.0,17,0.00,,,0.00,Wunderground v.1.15,2013-06-22 06:41:00,
2013-06-21 23:46:00,84.8,35.1,29.65,West,268,0.0,1.0,17,0.00,,,0.00,Wunderground v.1.15,2013-06-22 06:46:00,
2013-06-21 23:51:00,84.8,35.1,29.66,SW,236,2.0,2.0,17,0.00,,,0.00,Wunderground v.1.15,2013-06-22 06:51:00,
2013-06-21 23:56:00,84.6,36.4,29.66,WSW,240,0.0,4.0,18,0.00,,,0.00,Wunderground v.1.15,2013-06-22 06:56:00,